sensor_id;sensor_type;location;lat;lon;timestamp;pressure;altitude;pressure_sealevel;temperature;humidity
23417;BME280;11881;42.432;25.632;2023-11-19T00:00:27;98749.19;;;7.09;93.56
23417;BME280;11881;42.432;25.632;2023-11-19T00:02:53;98754.09;;;6.93;94.86
23417;BME280;11881;42.432;25.632;2023-11-19T00:05:18;98751.50;;;7.03;96.57
23417;BME280;11881;42.432;25.632;2023-11-19T00:07:44;98754.63;;;7.08;97.70
23417;BME280;11881;42.432;25.632;2023-11-19T00:10:11;98764.56;;;7.15;100.00
23417;BME280;11881;42.432;25.632;2023-11-19T00:12:44;98759.50;;;7.12;100.00
23417;BME280;11881;42.432;25.632;2023-11-19T00:15:10;98763.72;;;7.15;100.00
23417;BME280;11881;42.432;25.632;2023-11-19T00:17:44;98751.31;;;7.15;100.00
23417;BME280;11881;42.432;25.632;2023-11-19T00:20:19;98759.13;;;7.17;100.00
23417;BME280;11881;42.432;25.632;2023-11-19T00:22:44;98761.59;;;7.09;100.00
23417;BME280;11881;42.432;25.632;2023-11-19T00:25:13;98762.66;;;7.06;100.00
23417;BME280;11881;42.432;25.632;2023-11-19T00:27:39;98778.00;;;7.03;100.00
23417;BME280;11881;42.432;25.632;2023-11-19T00:30:05;98774.25;;;7.05;100.00
23417;BME280;11881;42.432;25.632;2023-11-19T00:32:32;98783.59;;;6.88;100.00
23417;BME280;11881;42.432;25.632;2023-11-19T00:34:58;98784.44;;;6.89;100.00
23417;BME280;11881;42.432;25.632;2023-11-19T00:37:23;98793.44;;;6.98;100.00
23417;BME280;11881;42.432;25.632;2023-11-19T00:39:49;98803.38;;;7.05;99.25
23417;BME280;11881;42.432;25.632;2023-11-19T00:42:14;98802.16;;;7.09;99.56
23417;BME280;11881;42.432;25.632;2023-11-19T00:44:40;98812.03;;;7.07;97.31
23417;BME280;11881;42.432;25.632;2023-11-19T00:47:06;98813.44;;;7.11;98.24
23417;BME280;11881;42.432;25.632;2023-11-19T00:49:31;98813.25;;;7.24;98.16
23417;BME280;11881;42.432;25.632;2023-11-19T00:52:00;98800.53;;;7.18;97.83
23417;BME280;11881;42.432;25.632;2023-11-19T00:54:27;98799.22;;;7.12;100.00
23417;BME280;11881;42.432;25.632;2023-11-19T00:56:53;98795.22;;;7.18;98.11
23417;BME280;11881;42.432;25.632;2023-11-19T00:59:19;98807.84;;;7.26;99.71
23417;BME280;11881;42.432;25.632;2023-11-19T01:01:44;98805.59;;;7.21;96.22
23417;BME280;11881;42.432;25.632;2023-11-19T01:04:10;98808.78;;;7.25;95.81
23417;BME280;11881;42.432;25.632;2023-11-19T01:06:35;98804.78;;;7.30;94.72
23417;BME280;11881;42.432;25.632;2023-11-19T01:09:01;98814.97;;;7.25;95.14
23417;BME280;11881;42.432;25.632;2023-11-19T01:11:27;98805.00;;;7.17;95.47
23417;BME280;11881;42.432;25.632;2023-11-19T01:13:53;98802.56;;;7.26;96.76
23417;BME280;11881;42.432;25.632;2023-11-19T01:16:19;98798.47;;;7.22;95.38
23417;BME280;11881;42.432;25.632;2023-11-19T01:18:46;98790.53;;;7.22;94.27
23417;BME280;11881;42.432;25.632;2023-11-19T01:21:12;98789.69;;;7.21;92.79
23417;BME280;11881;42.432;25.632;2023-11-19T01:23:37;98810.59;;;7.24;93.20
23417;BME280;11881;42.432;25.632;2023-11-19T01:26:03;98809.53;;;7.27;94.18
23417;BME280;11881;42.432;25.632;2023-11-19T01:28:31;98811.34;;;7.26;93.53
23417;BME280;11881;42.432;25.632;2023-11-19T01:30:56;98806.88;;;7.27;90.84
23417;BME280;11881;42.432;25.632;2023-11-19T01:33:22;98802.41;;;7.27;92.50
23417;BME280;11881;42.432;25.632;2023-11-19T01:35:47;98806.50;;;7.31;91.70
23417;BME280;11881;42.432;25.632;2023-11-19T01:38:13;98809.66;;;7.25;89.93
23417;BME280;11881;42.432;25.632;2023-11-19T01:40:38;98804.22;;;7.27;89.79
23417;BME280;11881;42.432;25.632;2023-11-19T01:43:03;98809.69;;;7.35;90.66
23417;BME280;11881;42.432;25.632;2023-11-19T01:45:30;98802.03;;;7.32;88.25
23417;BME280;11881;42.432;25.632;2023-11-19T01:47:57;98797.13;;;7.27;92.23
23417;BME280;11881;42.432;25.632;2023-11-19T01:50:24;98794.31;;;7.29;89.98
23417;BME280;11881;42.432;25.632;2023-11-19T01:52:53;98796.78;;;7.20;89.66
23417;BME280;11881;42.432;25.632;2023-11-19T01:55:20;98790.69;;;7.30;89.50
23417;BME280;11881;42.432;25.632;2023-11-19T01:57:47;98789.75;;;7.31;89.83
23417;BME280;11881;42.432;25.632;2023-11-19T02:00:13;98786.91;;;7.43;89.72
23417;BME280;11881;42.432;25.632;2023-11-19T02:02:40;98774.03;;;7.39;88.20
23417;BME280;11881;42.432;25.632;2023-11-19T02:05:06;98771.31;;;7.50;88.10
23417;BME280;11881;42.432;25.632;2023-11-19T02:07:32;98787.22;;;7.50;85.67
23417;BME280;11881;42.432;25.632;2023-11-19T02:09:57;98777.13;;;7.44;84.03
23417;BME280;11881;42.432;25.632;2023-11-19T02:12:26;98769.84;;;7.36;82.40
23417;BME280;11881;42.432;25.632;2023-11-19T02:14:53;98771.44;;;7.49;83.56
23417;BME280;11881;42.432;25.632;2023-11-19T02:17:30;98777.69;;;7.47;82.83
23417;BME280;11881;42.432;25.632;2023-11-19T02:19:59;98771.97;;;7.42;81.98
23417;BME280;11881;42.432;25.632;2023-11-19T02:22:25;98774.09;;;7.49;81.82
23417;BME280;11881;42.432;25.632;2023-11-19T02:25:00;98767.06;;;7.38;80.47
23417;BME280;11881;42.432;25.632;2023-11-19T02:27:58;98749.97;;;7.52;80.90
23417;BME280;11881;42.432;25.632;2023-11-19T02:30:25;98770.84;;;7.45;78.04
23417;BME280;11881;42.432;25.632;2023-11-19T02:32:57;98772.59;;;7.35;78.32
23417;BME280;11881;42.432;25.632;2023-11-19T02:35:27;98785.09;;;7.44;79.91
23417;BME280;11881;42.432;25.632;2023-11-19T02:37:55;98779.50;;;7.47;78.14
23417;BME280;11881;42.432;25.632;2023-11-19T02:40:21;98779.41;;;7.49;77.91
23417;BME280;11881;42.432;25.632;2023-11-19T02:42:49;98779.44;;;7.58;78.10
23417;BME280;11881;42.432;25.632;2023-11-19T02:45:14;98776.78;;;7.58;79.16
23417;BME280;11881;42.432;25.632;2023-11-19T02:47:41;98774.41;;;7.55;76.56
23417;BME280;11881;42.432;25.632;2023-11-19T02:50:12;98775.19;;;7.46;75.75
23417;BME280;11881;42.432;25.632;2023-11-19T02:52:41;98791.91;;;7.46;75.53
23417;BME280;11881;42.432;25.632;2023-11-19T02:55:08;98784.19;;;7.64;76.89
23417;BME280;11881;42.432;25.632;2023-11-19T02:57:35;98792.69;;;7.58;76.30
23417;BME280;11881;42.432;25.632;2023-11-19T03:00:01;98787.13;;;7.61;76.07
23417;BME280;11881;42.432;25.632;2023-11-19T03:02:39;98785.13;;;7.54;74.19
23417;BME280;11881;42.432;25.632;2023-11-19T03:05:10;98780.84;;;7.62;75.15
23417;BME280;11881;42.432;25.632;2023-11-19T03:07:37;98800.38;;;7.61;75.28
23417;BME280;11881;42.432;25.632;2023-11-19T03:10:02;98790.34;;;7.65;73.74
23417;BME280;11881;42.432;25.632;2023-11-19T03:12:30;98797.72;;;7.61;74.18
23417;BME280;11881;42.432;25.632;2023-11-19T03:14:56;98791.97;;;7.56;73.84
23417;BME280;11881;42.432;25.632;2023-11-19T03:17:21;98801.16;;;7.52;73.64
23417;BME280;11881;42.432;25.632;2023-11-19T03:19:47;98808.56;;;7.49;75.34
23417;BME280;11881;42.432;25.632;2023-11-19T03:22:13;98817.50;;;7.57;74.13
23417;BME280;11881;42.432;25.632;2023-11-19T03:24:39;98812.59;;;7.53;74.25
23417;BME280;11881;42.432;25.632;2023-11-19T03:27:05;98814.94;;;7.46;73.36
23417;BME280;11881;42.432;25.632;2023-11-19T03:29:30;98816.44;;;7.39;73.72
23417;BME280;11881;42.432;25.632;2023-11-19T03:31:55;98826.63;;;7.23;74.54
23417;BME280;11881;42.432;25.632;2023-11-19T03:34:21;98836.19;;;7.35;75.56
23417;BME280;11881;42.432;25.632;2023-11-19T03:36:47;98845.13;;;7.34;74.50
23417;BME280;11881;42.432;25.632;2023-11-19T03:39:12;98849.22;;;7.38;74.40
23417;BME280;11881;42.432;25.632;2023-11-19T03:41:38;98834.00;;;7.40;74.30
23417;BME280;11881;42.432;25.632;2023-11-19T03:44:03;98827.28;;;7.36;75.15
23417;BME280;11881;42.432;25.632;2023-11-19T03:46:28;98821.09;;;7.26;73.97
23417;BME280;11881;42.432;25.632;2023-11-19T03:48:55;98826.78;;;7.21;74.43
23417;BME280;11881;42.432;25.632;2023-11-19T03:51:20;98836.25;;;7.24;74.30
23417;BME280;11881;42.432;25.632;2023-11-19T03:53:46;98839.88;;;7.23;74.51
23417;BME280;11881;42.432;25.632;2023-11-19T03:56:12;98846.25;;;7.31;74.84
23417;BME280;11881;42.432;25.632;2023-11-19T03:58:38;98847.59;;;7.26;75.12
23417;BME280;11881;42.432;25.632;2023-11-19T04:01:11;98847.59;;;7.26;74.82
23417;BME280;11881;42.432;25.632;2023-11-19T04:03:36;98850.84;;;7.18;75.54
23417;BME280;11881;42.432;25.632;2023-11-19T04:06:02;98871.16;;;7.08;74.86
23417;BME280;11881;42.432;25.632;2023-11-19T04:08:28;98854.09;;;7.22;74.79
23417;BME280;11881;42.432;25.632;2023-11-19T04:10:53;98851.50;;;7.10;74.77
23417;BME280;11881;42.432;25.632;2023-11-19T04:13:18;98854.25;;;7.20;74.70
23417;BME280;11881;42.432;25.632;2023-11-19T04:15:45;98858.75;;;7.08;74.55
23417;BME280;11881;42.432;25.632;2023-11-19T04:18:10;98860.94;;;7.03;76.42
23417;BME280;11881;42.432;25.632;2023-11-19T04:20:36;98854.28;;;7.09;74.06
23417;BME280;11881;42.432;25.632;2023-11-19T04:23:01;98862.28;;;7.18;73.77
23417;BME280;11881;42.432;25.632;2023-11-19T04:25:27;98848.88;;;7.31;74.58
23417;BME280;11881;42.432;25.632;2023-11-19T04:27:52;98845.59;;;7.39;73.94
23417;BME280;11881;42.432;25.632;2023-11-19T04:30:18;98855.88;;;7.32;74.24
23417;BME280;11881;42.432;25.632;2023-11-19T04:32:44;98862.88;;;7.22;74.10
23417;BME280;11881;42.432;25.632;2023-11-19T04:35:09;98878.00;;;7.10;73.96
23417;BME280;11881;42.432;25.632;2023-11-19T04:37:36;98891.00;;;7.13;74.56
23417;BME280;11881;42.432;25.632;2023-11-19T04:40:02;98874.00;;;7.16;75.47
23417;BME280;11881;42.432;25.632;2023-11-19T04:42:27;98887.75;;;7.10;74.23
23417;BME280;11881;42.432;25.632;2023-11-19T04:44:53;98869.81;;;7.13;74.51
23417;BME280;11881;42.432;25.632;2023-11-19T04:47:18;98883.44;;;7.09;74.15
23417;BME280;11881;42.432;25.632;2023-11-19T04:49:44;98873.00;;;6.96;75.77
23417;BME280;11881;42.432;25.632;2023-11-19T04:52:09;98877.81;;;7.02;74.94
23417;BME280;11881;42.432;25.632;2023-11-19T04:54:34;98879.72;;;7.00;76.01
23417;BME280;11881;42.432;25.632;2023-11-19T04:57:00;98878.03;;;6.99;74.91
23417;BME280;11881;42.432;25.632;2023-11-19T04:59:25;98866.59;;;6.99;76.03
23417;BME280;11881;42.432;25.632;2023-11-19T05:01:52;98860.72;;;6.95;76.02
23417;BME280;11881;42.432;25.632;2023-11-19T05:04:18;98870.47;;;6.94;75.95
23417;BME280;11881;42.432;25.632;2023-11-19T05:06:44;98851.47;;;6.89;77.01
23417;BME280;11881;42.432;25.632;2023-11-19T05:09:09;98868.97;;;6.81;77.55
23417;BME280;11881;42.432;25.632;2023-11-19T05:11:37;98878.84;;;6.79;78.28
23417;BME280;11881;42.432;25.632;2023-11-19T05:14:04;98878.81;;;6.90;77.83
23417;BME280;11881;42.432;25.632;2023-11-19T05:16:30;98886.13;;;6.98;78.10
23417;BME280;11881;42.432;25.632;2023-11-19T05:18:56;98889.09;;;7.04;76.74
23417;BME280;11881;42.432;25.632;2023-11-19T05:21:21;98886.13;;;6.98;77.18
23417;BME280;11881;42.432;25.632;2023-11-19T05:23:47;98888.19;;;6.83;77.54
23417;BME280;11881;42.432;25.632;2023-11-19T05:26:20;98895.09;;;7.06;78.66
23417;BME280;11881;42.432;25.632;2023-11-19T05:28:46;98892.13;;;7.00;76.19
23417;BME280;11881;42.432;25.632;2023-11-19T05:31:12;98912.50;;;6.88;77.52
23417;BME280;11881;42.432;25.632;2023-11-19T05:33:37;98896.94;;;6.94;77.51
23417;BME280;11881;42.432;25.632;2023-11-19T05:36:04;98912.88;;;6.83;78.27
23417;BME280;11881;42.432;25.632;2023-11-19T05:38:30;98915.63;;;6.93;77.22
23417;BME280;11881;42.432;25.632;2023-11-19T05:40:55;98927.31;;;6.90;76.83
23417;BME280;11881;42.432;25.632;2023-11-19T05:43:22;98929.69;;;6.93;76.28
23417;BME280;11881;42.432;25.632;2023-11-19T05:45:47;98920.78;;;6.94;76.19
23417;BME280;11881;42.432;25.632;2023-11-19T05:48:13;98929.13;;;6.90;76.42
23417;BME280;11881;42.432;25.632;2023-11-19T05:50:39;98934.78;;;6.85;75.45
23417;BME280;11881;42.432;25.632;2023-11-19T05:53:04;98914.44;;;6.86;76.16
23417;BME280;11881;42.432;25.632;2023-11-19T05:55:38;98914.66;;;6.94;75.80
23417;BME280;11881;42.432;25.632;2023-11-19T05:58:11;98904.81;;;6.85;76.87
23417;BME280;11881;42.432;25.632;2023-11-19T06:00:40;98898.91;;;6.81;77.71
23417;BME280;11881;42.432;25.632;2023-11-19T06:03:09;98897.25;;;6.80;76.70
23417;BME280;11881;42.432;25.632;2023-11-19T06:05:34;98894.81;;;6.77;76.91
23417;BME280;11881;42.432;25.632;2023-11-19T06:07:59;98902.28;;;6.72;76.58
23417;BME280;11881;42.432;25.632;2023-11-19T06:10:25;98887.72;;;6.78;76.38
23417;BME280;11881;42.432;25.632;2023-11-19T06:12:59;98910.38;;;6.71;76.72
23417;BME280;11881;42.432;25.632;2023-11-19T06:15:28;98902.66;;;6.79;76.79
23417;BME280;11881;42.432;25.632;2023-11-19T06:17:54;98900.84;;;6.79;76.84
23417;BME280;11881;42.432;25.632;2023-11-19T06:20:20;98895.09;;;6.74;75.78
23417;BME280;11881;42.432;25.632;2023-11-19T06:22:46;98902.16;;;6.85;76.14
23417;BME280;11881;42.432;25.632;2023-11-19T06:25:12;98893.03;;;6.78;76.00
23417;BME280;11881;42.432;25.632;2023-11-19T06:27:40;98883.16;;;6.80;76.46
23417;BME280;11881;42.432;25.632;2023-11-19T06:30:07;98888.47;;;6.80;75.25
23417;BME280;11881;42.432;25.632;2023-11-19T06:32:32;98892.09;;;6.79;74.89
23417;BME280;11881;42.432;25.632;2023-11-19T06:34:58;98890.00;;;6.82;74.95
23417;BME280;11881;42.432;25.632;2023-11-19T06:37:23;98902.91;;;6.76;75.21
23417;BME280;11881;42.432;25.632;2023-11-19T06:39:49;98917.59;;;6.80;75.07
23417;BME280;11881;42.432;25.632;2023-11-19T06:42:14;98922.41;;;6.75;74.83
23417;BME280;11881;42.432;25.632;2023-11-19T06:44:40;98921.06;;;6.80;75.08
23417;BME280;11881;42.432;25.632;2023-11-19T06:47:05;98921.78;;;6.82;75.44
23417;BME280;11881;42.432;25.632;2023-11-19T06:49:31;98944.03;;;6.91;75.07
23417;BME280;11881;42.432;25.632;2023-11-19T06:51:57;98931.50;;;6.93;73.70
23417;BME280;11881;42.432;25.632;2023-11-19T06:54:22;98909.34;;;6.94;74.18
23417;BME280;11881;42.432;25.632;2023-11-19T06:56:48;98938.75;;;6.91;74.57
23417;BME280;11881;42.432;25.632;2023-11-19T06:59:14;98925.03;;;6.86;72.94
23417;BME280;11881;42.432;25.632;2023-11-19T07:01:39;98947.25;;;6.94;73.48
23417;BME280;11881;42.432;25.632;2023-11-19T07:04:08;98925.38;;;6.92;72.97
23417;BME280;11881;42.432;25.632;2023-11-19T07:06:35;98953.88;;;7.00;72.55
23417;BME280;11881;42.432;25.632;2023-11-19T07:09:02;98949.28;;;7.13;71.74
23417;BME280;11881;42.432;25.632;2023-11-19T07:11:39;98938.91;;;7.10;72.70
23417;BME280;11881;42.432;25.632;2023-11-19T07:14:06;98940.59;;;7.11;72.66
23417;BME280;11881;42.432;25.632;2023-11-19T07:16:32;98924.38;;;7.05;72.27
23417;BME280;11881;42.432;25.632;2023-11-19T07:19:00;98920.78;;;6.94;71.78
23417;BME280;11881;42.432;25.632;2023-11-19T07:21:25;98935.09;;;7.03;71.92
23417;BME280;11881;42.432;25.632;2023-11-19T07:23:51;98920.84;;;7.15;71.87
23417;BME280;11881;42.432;25.632;2023-11-19T07:26:17;98917.88;;;7.09;72.98
23417;BME280;11881;42.432;25.632;2023-11-19T07:28:42;98924.91;;;7.31;71.53
23417;BME280;11881;42.432;25.632;2023-11-19T07:31:10;98936.28;;;7.63;68.95
23417;BME280;11881;42.432;25.632;2023-11-19T07:33:36;98906.22;;;7.74;68.11
23417;BME280;11881;42.432;25.632;2023-11-19T07:36:02;98904.63;;;7.92;66.91
23417;BME280;11881;42.432;25.632;2023-11-19T07:38:27;98909.72;;;8.05;67.46
23417;BME280;11881;42.432;25.632;2023-11-19T07:40:52;98906.88;;;8.18;65.84
23417;BME280;11881;42.432;25.632;2023-11-19T07:43:18;98914.56;;;8.21;65.98
23417;BME280;11881;42.432;25.632;2023-11-19T07:45:43;98940.50;;;8.38;65.14
23417;BME280;11881;42.432;25.632;2023-11-19T07:48:10;98943.06;;;8.28;64.80
23417;BME280;11881;42.432;25.632;2023-11-19T07:50:38;98929.06;;;8.38;64.28
23417;BME280;11881;42.432;25.632;2023-11-19T07:53:03;98974.09;;;8.28;64.21
23417;BME280;11881;42.432;25.632;2023-11-19T07:55:29;98958.16;;;8.28;65.16
23417;BME280;11881;42.432;25.632;2023-11-19T07:57:55;98966.13;;;8.28;64.21
23417;BME280;11881;42.432;25.632;2023-11-19T08:00:21;98988.63;;;8.24;64.52
23417;BME280;11881;42.432;25.632;2023-11-19T08:02:46;98987.91;;;8.43;62.80
23417;BME280;11881;42.432;25.632;2023-11-19T08:05:12;98987.97;;;8.62;63.89
23417;BME280;11881;42.432;25.632;2023-11-19T08:07:37;98995.31;;;8.79;63.00
23417;BME280;11881;42.432;25.632;2023-11-19T08:10:04;99006.13;;;8.97;63.13
23417;BME280;11881;42.432;25.632;2023-11-19T08:12:30;98993.47;;;9.11;62.40
23417;BME280;11881;42.432;25.632;2023-11-19T08:14:56;99007.75;;;9.29;61.90
23417;BME280;11881;42.432;25.632;2023-11-19T08:17:24;98995.84;;;9.23;61.24
23417;BME280;11881;42.432;25.632;2023-11-19T08:19:49;98994.28;;;9.21;61.35
23417;BME280;11881;42.432;25.632;2023-11-19T08:22:15;98985.34;;;9.31;60.84
23417;BME280;11881;42.432;25.632;2023-11-19T08:24:42;98996.03;;;9.51;60.70
23417;BME280;11881;42.432;25.632;2023-11-19T08:27:08;98992.94;;;9.65;60.69
23417;BME280;11881;42.432;25.632;2023-11-19T08:29:33;98984.25;;;9.73;59.96
23417;BME280;11881;42.432;25.632;2023-11-19T08:32:00;98994.06;;;9.72;59.70
23417;BME280;11881;42.432;25.632;2023-11-19T08:34:27;98994.78;;;9.74;59.72
23417;BME280;11881;42.432;25.632;2023-11-19T08:36:52;98993.09;;;9.93;58.68
23417;BME280;11881;42.432;25.632;2023-11-19T08:39:21;98980.75;;;9.92;58.36
23417;BME280;11881;42.432;25.632;2023-11-19T08:41:47;98985.25;;;9.81;58.50
23417;BME280;11881;42.432;25.632;2023-11-19T08:44:13;98991.78;;;9.97;57.99
23417;BME280;11881;42.432;25.632;2023-11-19T08:46:39;98999.22;;;10.03;57.82
23417;BME280;11881;42.432;25.632;2023-11-19T08:49:11;98986.19;;;9.90;57.98
23417;BME280;11881;42.432;25.632;2023-11-19T08:51:36;99002.31;;;9.98;58.37
23417;BME280;11881;42.432;25.632;2023-11-19T08:54:02;98997.94;;;10.07;57.51
23417;BME280;11881;42.432;25.632;2023-11-19T08:56:27;98988.97;;;10.18;57.34
23417;BME280;11881;42.432;25.632;2023-11-19T08:58:57;99007.06;;;9.95;56.51
23417;BME280;11881;42.432;25.632;2023-11-19T09:01:22;99020.50;;;10.22;56.54
23417;BME280;11881;42.432;25.632;2023-11-19T09:03:47;99034.50;;;10.34;55.76
23417;BME280;11881;42.432;25.632;2023-11-19T09:06:13;99052.03;;;10.17;55.24
23417;BME280;11881;42.432;25.632;2023-11-19T09:08:38;99061.41;;;10.21;55.44
23417;BME280;11881;42.432;25.632;2023-11-19T09:11:07;99054.25;;;10.31;55.08
23417;BME280;11881;42.432;25.632;2023-11-19T09:13:33;99063.19;;;10.59;55.57
23417;BME280;11881;42.432;25.632;2023-11-19T09:15:58;99061.41;;;10.87;54.82
23417;BME280;11881;42.432;25.632;2023-11-19T09:18:28;99051.34;;;10.81;54.66
23417;BME280;11881;42.432;25.632;2023-11-19T09:20:54;99039.28;;;11.14;54.70
23417;BME280;11881;42.432;25.632;2023-11-19T09:23:20;99037.19;;;11.08;54.22
23417;BME280;11881;42.432;25.632;2023-11-19T09:25:45;99029.97;;;11.18;53.98
23417;BME280;11881;42.432;25.632;2023-11-19T09:28:11;99026.56;;;11.26;53.64
23417;BME280;11881;42.432;25.632;2023-11-19T09:30:36;99019.69;;;11.24;52.69
23417;BME280;11881;42.432;25.632;2023-11-19T09:33:01;99018.22;;;11.39;52.73
23417;BME280;11881;42.432;25.632;2023-11-19T09:35:27;99016.28;;;11.13;52.44
23417;BME280;11881;42.432;25.632;2023-11-19T09:37:53;99020.66;;;11.05;52.69
23417;BME280;11881;42.432;25.632;2023-11-19T09:40:18;99029.75;;;11.30;52.78
23417;BME280;11881;42.432;25.632;2023-11-19T09:42:44;99024.50;;;11.20;53.61
23417;BME280;11881;42.432;25.632;2023-11-19T09:45:15;99027.81;;;11.04;53.76
23417;BME280;11881;42.432;25.632;2023-11-19T09:47:43;99044.66;;;11.05;53.37
23417;BME280;11881;42.432;25.632;2023-11-19T09:50:17;99047.09;;;11.43;53.77
23417;BME280;11881;42.432;25.632;2023-11-19T09:52:44;99058.41;;;11.28;53.92
23417;BME280;11881;42.432;25.632;2023-11-19T09:55:10;99057.78;;;11.43;53.66
23417;BME280;11881;42.432;25.632;2023-11-19T09:57:38;99052.47;;;11.79;53.51
23417;BME280;11881;42.432;25.632;2023-11-19T10:00:04;99051.69;;;11.51;52.85
23417;BME280;11881;42.432;25.632;2023-11-19T10:02:33;99058.19;;;11.66;52.72
23417;BME280;11881;42.432;25.632;2023-11-19T10:05:04;99054.91;;;11.72;52.36
23417;BME280;11881;42.432;25.632;2023-11-19T10:07:31;99053.78;;;11.48;52.09
23417;BME280;11881;42.432;25.632;2023-11-19T10:10:02;99044.44;;;11.43;51.99
23417;BME280;11881;42.432;25.632;2023-11-19T10:12:29;99050.31;;;11.65;52.79
23417;BME280;11881;42.432;25.632;2023-11-19T10:14:58;99073.47;;;11.46;51.56
23417;BME280;11881;42.432;25.632;2023-11-19T10:17:42;99083.78;;;11.59;50.75
23417;BME280;11881;42.432;25.632;2023-11-19T10:20:08;99059.47;;;11.80;49.99
23417;BME280;11881;42.432;25.632;2023-11-19T10:22:37;99052.56;;;12.05;49.97
23417;BME280;11881;42.432;25.632;2023-11-19T10:25:02;99059.19;;;12.19;49.31
23417;BME280;11881;42.432;25.632;2023-11-19T10:27:28;99052.94;;;12.10;50.17
23417;BME280;11881;42.432;25.632;2023-11-19T10:29:53;99070.41;;;12.05;50.12
23417;BME280;11881;42.432;25.632;2023-11-19T10:32:19;99082.72;;;11.70;50.27
23417;BME280;11881;42.432;25.632;2023-11-19T10:34:44;99087.78;;;11.73;50.82
23417;BME280;11881;42.432;25.632;2023-11-19T10:37:27;99082.25;;;11.57;49.98
23417;BME280;11881;42.432;25.632;2023-11-19T10:39:53;99080.16;;;11.78;50.64
23417;BME280;11881;42.432;25.632;2023-11-19T10:42:22;99088.50;;;11.93;50.40
23417;BME280;11881;42.432;25.632;2023-11-19T10:44:48;99079.81;;;12.09;51.46
23417;BME280;11881;42.432;25.632;2023-11-19T10:47:18;99077.69;;;12.12;49.75
23417;BME280;11881;42.432;25.632;2023-11-19T10:49:45;99065.22;;;12.21;49.94
23417;BME280;11881;42.432;25.632;2023-11-19T10:52:17;99061.72;;;12.20;49.88
23417;BME280;11881;42.432;25.632;2023-11-19T10:54:49;99046.16;;;12.16;48.20
23417;BME280;11881;42.432;25.632;2023-11-19T10:57:20;99052.47;;;12.15;49.94
23417;BME280;11881;42.432;25.632;2023-11-19T10:59:47;99066.84;;;12.14;49.19
23417;BME280;11881;42.432;25.632;2023-11-19T11:02:16;99061.41;;;12.06;49.47
23417;BME280;11881;42.432;25.632;2023-11-19T11:04:45;99056.84;;;11.98;49.25
23417;BME280;11881;42.432;25.632;2023-11-19T11:07:14;99076.25;;;11.55;49.91
23417;BME280;11881;42.432;25.632;2023-11-19T11:09:41;99071.38;;;11.68;50.15
23417;BME280;11881;42.432;25.632;2023-11-19T11:12:09;99076.97;;;11.47;49.67
23417;BME280;11881;42.432;25.632;2023-11-19T11:14:37;99062.34;;;11.51;50.60
23417;BME280;11881;42.432;25.632;2023-11-19T11:17:05;99060.16;;;11.64;49.88
23417;BME280;11881;42.432;25.632;2023-11-19T11:19:33;99059.88;;;11.67;50.19
23417;BME280;11881;42.432;25.632;2023-11-19T11:22:00;99069.97;;;11.46;49.15
23417;BME280;11881;42.432;25.632;2023-11-19T11:30:47;99075.06;;;11.39;50.31
23417;BME280;11881;42.432;25.632;2023-11-19T11:38:37;99067.00;;;11.49;49.64
23417;BME280;11881;42.432;25.632;2023-11-19T11:41:20;99053.31;;;11.34;49.36
23417;BME280;11881;42.432;25.632;2023-11-19T11:49:01;99049.19;;;11.22;50.40
23417;BME280;11881;42.432;25.632;2023-11-19T11:59:42;99041.88;;;11.24;49.98
23417;BME280;11881;42.432;25.632;2023-11-19T12:02:09;99039.03;;;11.08;50.77
23417;BME280;11881;42.432;25.632;2023-11-19T12:04:35;99038.63;;;11.03;50.71
23417;BME280;11881;42.432;25.632;2023-11-19T12:07:16;99035.81;;;11.04;50.10
23417;BME280;11881;42.432;25.632;2023-11-19T12:09:42;99019.84;;;10.95;50.76
23417;BME280;11881;42.432;25.632;2023-11-19T12:20:04;99010.81;;;11.05;49.51
23417;BME280;11881;42.432;25.632;2023-11-19T12:22:44;98995.16;;;11.02;50.21
23417;BME280;11881;42.432;25.632;2023-11-19T12:25:11;98999.03;;;11.08;49.75
23417;BME280;11881;42.432;25.632;2023-11-19T12:27:40;99009.00;;;11.06;49.85
23417;BME280;11881;42.432;25.632;2023-11-19T12:30:07;98993.94;;;11.14;49.37
23417;BME280;11881;42.432;25.632;2023-11-19T12:32:45;98986.19;;;11.21;48.87
23417;BME280;11881;42.432;25.632;2023-11-19T12:35:11;98982.31;;;11.33;49.06
23417;BME280;11881;42.432;25.632;2023-11-19T12:37:40;98990.91;;;11.27;48.63
23417;BME280;11881;42.432;25.632;2023-11-19T12:40:17;99002.25;;;11.29;49.70
23417;BME280;11881;42.432;25.632;2023-11-19T12:42:44;99004.53;;;11.24;49.24
23417;BME280;11881;42.432;25.632;2023-11-19T12:45:09;99010.22;;;11.11;49.25
23417;BME280;11881;42.432;25.632;2023-11-19T12:47:36;99011.72;;;10.96;50.59
23417;BME280;11881;42.432;25.632;2023-11-19T12:50:03;99010.50;;;10.90;50.43
23417;BME280;11881;42.432;25.632;2023-11-19T12:52:29;99015.34;;;10.95;50.35
23417;BME280;11881;42.432;25.632;2023-11-19T12:54:55;99008.91;;;10.98;50.99
23417;BME280;11881;42.432;25.632;2023-11-19T12:57:21;98988.06;;;10.83;50.28
23417;BME280;11881;42.432;25.632;2023-11-19T12:59:55;98984.13;;;10.87;50.91
23417;BME280;11881;42.432;25.632;2023-11-19T13:02:45;98987.09;;;10.84;50.52
23417;BME280;11881;42.432;25.632;2023-11-19T13:05:29;98994.38;;;10.82;51.09
23417;BME280;11881;42.432;25.632;2023-11-19T13:08:06;99002.94;;;10.86;51.13
23417;BME280;11881;42.432;25.632;2023-11-19T13:10:33;98992.34;;;10.94;50.92
23417;BME280;11881;42.432;25.632;2023-11-19T13:13:08;98986.63;;;10.89;51.67
23417;BME280;11881;42.432;25.632;2023-11-19T13:15:35;98982.72;;;10.83;51.34
23417;BME280;11881;42.432;25.632;2023-11-19T13:18:01;98978.56;;;10.81;51.34
23417;BME280;11881;42.432;25.632;2023-11-19T13:20:28;98972.88;;;10.93;51.79
23417;BME280;11881;42.432;25.632;2023-11-19T13:22:58;98957.03;;;10.92;52.12
23417;BME280;11881;42.432;25.632;2023-11-19T13:25:24;98955.75;;;10.96;51.75
23417;BME280;11881;42.432;25.632;2023-11-19T13:27:49;98958.94;;;11.00;51.67
23417;BME280;11881;42.432;25.632;2023-11-19T13:30:15;98951.09;;;10.98;51.67